Time;durP1;ratioP1;P1;durP2;ratioP2;P2;SDS_P1;SDS_P2;PMS_P1;PMS_P2;Temp;Humidity;BMP_temperature;BMP_pressure;BME280_temperature;BME280_humidity;BME280_pressure;Samples;Min_cycle;Max_cycle;Signal;HPM_P1;HPM_P2
2023/11/15 03:01:51;;;;;;;12.68;6.13;;;;;;;6.14;100.00;100467.44;5132595;23;20064;-79
2023/11/15 04:08:46;;;;;;;9.93;5.22;;;;;;;6.21;100.00;100559.25;4878130;23;20247;-80
2023/11/15 07:00:08;;;;;;;8.57;5.43;;;;;;;5.57;100.00;100845.72;5831452;23;20025;-79
2023/11/15 07:02:35;;;;;;;8.00;4.88;;;;;;;5.62;100.00;100856.47;4846812;29;20045;-78
2023/11/15 07:05:07;;;;;;;;;;;;;;;5.66;100.00;100862.09;4836040;29;20049;-78
2023/11/15 07:07:33;;;;;;;8.68;5.32;;;;;;;5.67;100.00;100867.16;4847837;29;19923;-79
2023/11/15 07:09:59;;;;;;;8.88;5.10;;;;;;;5.70;100.00;100866.72;4850161;29;20828;-78
2023/11/15 07:12:25;;;;;;;8.32;6.00;;;;;;;5.71;100.00;100864.88;4839850;29;20076;-78
2023/11/15 07:14:51;;;;;;;10.27;4.95;;;;;;;5.73;100.00;100866.22;4852544;29;20112;-78
2023/11/15 07:17:20;;;;;;;8.10;5.25;;;;;;;5.75;100.00;100868.66;4835238;29;20075;-78
2023/11/15 07:19:49;;;;;;;9.50;5.47;;;;;;;5.77;100.00;100876.41;4853408;29;20500;-79
2023/11/15 07:22:15;;;;;;;9.38;5.53;;;;;;;5.79;100.00;100882.28;4835841;29;20131;-78
2023/11/15 07:24:42;;;;;;;9.32;5.53;;;;;;;5.80;100.00;100882.06;4850219;29;20092;-77
2023/11/15 07:27:09;;;;;;;10.18;5.43;;;;;;;5.78;100.00;100878.03;4850239;29;20524;-78
2023/11/15 07:29:35;;;;;;;8.63;5.43;;;;;;;5.78;100.00;100883.34;4849814;29;20041;-79
2023/11/15 07:32:04;;;;;;;8.27;4.75;;;;;;;5.79;100.00;100884.94;4855044;29;20037;-79
2023/11/15 07:34:33;;;;;;;6.75;4.70;;;;;;;5.82;100.00;100897.75;4853797;29;20037;-79
2023/11/15 07:36:59;;;;;;;8.02;5.68;;;;;;;5.83;100.00;100897.53;4852053;29;20106;-79
2023/11/15 07:39:26;;;;;;;8.27;4.82;;;;;;;5.87;100.00;100903.19;4850998;29;20037;-79
2023/11/15 07:41:52;;;;;;;9.63;5.53;;;;;;;5.89;100.00;100906.41;4838853;29;20044;-80
2023/11/15 07:44:19;;;;;;;9.50;5.55;;;;;;;5.91;100.00;100913.16;4839718;29;20077;-79
2023/11/15 07:46:51;;;;;;;11.15;6.20;;;;;;;5.96;100.00;100912.44;4826057;29;20052;-80
2023/11/15 07:49:18;;;;;;;7.05;4.72;;;;;;;5.97;100.00;100919.38;4854708;29;20385;-79
2023/11/15 07:51:45;;;;;;;8.32;5.15;;;;;;;6.00;100.00;100918.91;4855125;29;20132;-78
2023/11/15 07:54:11;;;;;;;9.27;5.00;;;;;;;6.05;100.00;100920.88;4852675;29;20637;-79
2023/11/15 07:56:37;;;;;;;8.10;4.95;;;;;;;6.09;100.00;100922.81;4843888;29;20045;-79
2023/11/15 07:59:04;;;;;;;7.32;4.93;;;;;;;6.12;100.00;100930.34;4849688;29;20038;-80
2023/11/15 08:01:29;;;;;;;9.93;4.90;;;;;;;6.17;100.00;100933.09;4837883;29;20404;-79
2023/11/15 08:03:55;;;;;;;9.38;5.50;;;;;;;6.21;100.00;100934.22;4851648;29;20041;-79
2023/11/15 08:06:21;;;;;;;8.88;5.25;;;;;;;6.23;100.00;100937.47;4853669;29;20799;-79
2023/11/15 08:08:47;;;;;;;8.75;5.10;;;;;;;6.26;100.00;100950.28;4849725;29;20033;-79
2023/11/15 08:11:14;;;;;;;7.90;5.43;;;;;;;6.31;100.00;100949.59;4837143;29;20038;-80
2023/11/15 08:13:41;;;;;;;7.75;5.65;;;;;;;6.34;100.00;100950.97;4851904;29;20041;-79
2023/11/15 08:16:12;;;;;;;8.18;5.38;;;;;;;6.36;100.00;100949.66;4849868;29;20533;-78
2023/11/15 08:18:39;;;;;;;6.63;4.50;;;;;;;6.36;100.00;100954.19;4851335;29;20072;-78
2023/11/15 08:21:05;;;;;;;6.53;4.82;;;;;;;6.38;100.00;100949.47;4853668;29;20030;-78
2023/11/15 08:23:31;;;;;;;7.10;4.18;;;;;;;6.35;100.00;100944.59;4849946;29;20045;-78
2023/11/15 08:26:02;;;;;;;5.90;4.38;;;;;;;6.36;100.00;100948.88;4861990;29;20090;-79
2023/11/15 08:28:28;;;;;;;6.72;4.03;;;;;;;6.41;100.00;100951.63;4856072;29;20036;-79
2023/11/15 08:30:53;;;;;;;8.13;3.80;;;;;;;6.48;100.00;100962.94;4853627;29;20037;-78
2023/11/15 08:33:19;;;;;;;6.53;3.92;;;;;;;6.51;100.00;100968.63;4838790;29;20053;-79
2023/11/15 08:35:47;;;;;;;7.65;3.92;;;;;;;6.55;100.00;100963.63;4837695;29;20066;-78
2023/11/15 08:38:12;;;;;;;7.35;4.15;;;;;;;6.58;100.00;100968.47;4854685;29;20041;-79
2023/11/15 08:40:38;;;;;;;5.57;3.75;;;;;;;6.60;100.00;100984.19;4850584;29;20188;-79
2023/11/15 08:43:04;;;;;;;6.82;3.80;;;;;;;6.61;100.00;100980.50;4853289;29;20112;-79
2023/11/15 08:45:30;;;;;;;5.18;3.70;;;;;;;6.66;100.00;100976.06;4868687;29;20037;-78
2023/11/15 08:47:57;;;;;;;5.85;3.60;;;;;;;6.64;100.00;100972.84;4851203;29;20144;-79
2023/11/15 08:50:27;;;;;;;5.35;4.25;;;;;;;6.66;100.00;100976.06;4852405;29;20144;-79
2023/11/15 08:52:54;;;;;;;4.72;3.53;;;;;;;6.68;100.00;100981.16;4854793;29;20049;-80
2023/11/15 08:55:20;;;;;;;6.38;4.57;;;;;;;6.70;100.00;100982.53;4853198;29;20102;-79
2023/11/15 08:57:46;;;;;;;7.45;3.60;;;;;;;6.67;100.00;100976.88;4853321;29;20045;-79
2023/11/15 09:00:12;;;;;;;6.55;4.70;;;;;;;6.67;100.00;100983.00;4836699;29;20041;-78
2023/11/15 09:02:41;;;;;;;;;;;;;;;6.67;100.00;100993.66;4835338;29;20492;-79
2023/11/15 09:05:07;;;;;;;5.78;4.07;;;;;;;6.67;100.00;100982.19;4852981;29;19927;-79
2023/11/15 09:07:33;;;;;;;5.43;4.53;;;;;;;6.67;100.00;100991.00;4846064;29;20045;-77
2023/11/15 09:09:58;;;;;;;5.82;4.18;;;;;;;6.65;100.00;100979.78;4853485;29;20052;-80
2023/11/15 09:12:30;;;;;;;6.03;4.40;;;;;;;6.67;100.00;100993.66;4851650;29;20650;-79
2023/11/15 09:14:58;;;;;;;8.50;4.60;;;;;;;6.65;100.00;100987.78;4849016;29;20037;-80
2023/11/15 09:17:24;;;;;;;4.90;3.92;;;;;;;6.68;100.00;100989.94;4853198;29;20042;-79
2023/11/15 09:19:56;;;;;;;4.82;4.25;;;;;;;6.71;100.00;101002.78;4853039;29;20044;-80
2023/11/15 09:22:22;;;;;;;7.80;5.15;;;;;;;6.74;100.00;100999.66;4850228;29;20053;-78
2023/11/15 09:24:51;;;;;;;6.22;4.28;;;;;;;6.79;100.00;101001.59;4850855;29;20042;-78
2023/11/15 09:27:17;;;;;;;5.22;3.78;;;;;;;6.85;100.00;101005.97;4839932;29;20029;-78
2023/11/15 09:29:43;;;;;;;4.75;3.60;;;;;;;6.87;100.00;101014.53;4854168;29;20052;-81
2023/11/15 09:32:10;;;;;;;5.15;3.38;;;;;;;6.84;100.00;101014.97;4852015;29;20045;-79
2023/11/15 09:34:38;;;;;;;3.95;3.55;;;;;;;6.86;100.00;101017.44;4852860;29;20033;-79
2023/11/15 09:37:04;;;;;;;5.82;3.88;;;;;;;6.88;100.00;101018.81;4867602;29;20049;-80
2023/11/15 09:39:29;;;;;;;6.18;3.45;;;;;;;6.88;100.00;101025.97;4853765;29;20041;-79
2023/11/15 09:41:57;;;;;;;;;;;;;;;6.88;100.00;101025.97;4851219;29;20033;-79
2023/11/15 09:44:24;;;;;;;4.07;3.08;;;;;;;6.89;100.00;101027.59;4866708;29;19996;-78
2023/11/15 09:46:56;;;;;;;5.18;3.33;;;;;;;6.91;100.00;101025.50;4852923;29;20040;-78
2023/11/15 09:49:24;;;;;;;5.85;3.90;;;;;;;6.92;100.00;101025.28;4865609;29;20077;-79
2023/11/15 09:51:51;;;;;;;6.50;3.90;;;;;;;6.99;100.00;101027.78;4848105;29;20072;-79
2023/11/15 09:54:20;;;;;;;4.18;3.70;;;;;;;7.00;100.00;101026.75;4836669;29;20142;-78
2023/11/15 09:56:47;;;;;;;5.63;3.47;;;;;;;7.04;100.00;101027.88;4850538;29;20036;-77
2023/11/15 09:59:13;;;;;;;4.53;3.38;;;;;;;7.08;100.00;101026.34;4866025;29;20548;-79
2023/11/15 10:01:50;;;;;;;3.97;3.13;;;;;;;7.10;100.00;101034.91;4848409;29;20048;-78
2023/11/15 10:04:24;;;;;;;4.53;3.60;;;;;;;7.13;100.00;101029.13;4851634;29;20041;-79
2023/11/15 10:06:51;;;;;;;6.03;4.20;;;;;;;7.20;100.00;101036.97;4848596;29;20507;-77
2023/11/15 10:09:31;;;;;;;6.57;4.60;;;;;;;7.27;100.00;101035.75;4864377;29;20492;-77
2023/11/15 10:12:00;;;;;;;7.63;4.15;;;;;;;7.41;100.00;101043.44;4859980;29;20038;-78
2023/11/15 10:14:27;;;;;;;7.30;4.90;;;;;;;7.43;100.00;101041.34;4846939;29;20099;-80
2023/11/15 10:16:53;;;;;;;6.72;3.90;;;;;;;7.48;100.00;101044.09;4855083;29;20403;-81
2023/11/15 10:19:27;;;;;;;6.43;4.40;;;;;;;7.56;100.00;101046.34;4835688;29;20041;-81
2023/11/15 10:21:57;;;;;;;6.78;4.07;;;;;;;7.63;100.00;101047.00;4852691;29;20037;-80
2023/11/15 10:24:23;;;;;;;6.90;4.05;;;;;;;7.63;100.00;101045.13;4835869;29;20812;-80
2023/11/15 10:26:49;;;;;;;6.18;3.70;;;;;;;7.64;100.00;101045.94;4834804;29;20132;-80
2023/11/15 10:29:15;;;;;;;5.25;3.33;;;;;;;7.65;100.00;101039.56;4823755;29;20068;-79
2023/11/15 10:31:53;;;;;;;5.53;2.92;;;;;;;7.66;100.00;101043.88;4837249;29;20037;-82
2023/11/15 10:34:20;;;;;;;;;;;;;;;7.64;100.00;101033.41;4850052;29;20050;-80
2023/11/15 10:37:07;;;;;;;7.05;3.53;;;;;;;7.60;100.00;101034.97;4855723;29;20002;-82
2023/11/15 10:39:40;;;;;;;5.40;3.40;;;;;;;7.55;100.00;101042.88;4849087;29;20751;-82
2023/11/15 10:42:09;;;;;;;5.63;3.60;;;;;;;7.53;100.00;101050.31;4867621;29;20389;-81
2023/11/15 10:44:37;;;;;;;6.40;4.38;;;;;;;7.57;100.00;101058.63;4836215;29;20629;-81
2023/11/15 10:47:05;;;;;;;5.97;4.45;;;;;;;7.62;100.00;101048.06;4867075;29;20192;-80
2023/11/15 10:49:38;;;;;;;8.77;4.78;;;;;;;7.70;100.00;101050.31;4864089;29;20045;-81
2023/11/15 10:52:05;;;;;;;;;;;;;;;7.76;100.00;101059.19;4840506;29;20038;-80
2023/11/15 10:54:32;;;;;;;5.25;4.15;;;;;;;7.78;100.00;101057.09;4866954;29;19920;-80
2023/11/15 10:57:01;;;;;;;4.68;3.80;;;;;;;7.76;100.00;101062.66;4852108;29;20080;-80
2023/11/15 10:59:29;;;;;;;4.45;3.92;;;;;;;7.74;100.00;101059.44;4871005;29;20561;-81
2023/11/15 11:01:56;;;;;;;4.32;3.92;;;;;;;7.76;100.00;101059.19;4840243;29;20130;-81
2023/11/15 11:04:23;;;;;;;5.43;4.55;;;;;;;7.76;100.00;101061.88;4855365;29;20037;-80
2023/11/15 11:07:04;;;;;;;4.30;3.90;;;;;;;7.72;100.00;101060.72;4841405;29;20138;-81
2023/11/15 11:10:13;;;;;;;4.60;3.63;;;;;;;7.76;100.00;101062.66;4873066;29;20576;-81
2023/11/15 11:12:40;;;;;;;;;;;;;;;7.80;100.00;101066.47;4858919;29;20073;-81
2023/11/15 11:15:16;;;;;;;6.47;3.00;;;;;;;7.83;100.00;101060.66;4824158;29;19916;-79
2023/11/15 11:17:44;;;;;;;4.97;3.08;;;;;;;7.88;100.00;101068.72;4856928;29;20048;-82
2023/11/15 11:20:27;;;;;;;4.32;2.83;;;;;;;7.92;100.00;101069.03;4840279;29;20037;-82
2023/11/15 11:23:17;;;;;;;3.33;1.95;;;;;;;7.96;100.00;101064.84;4854741;29;20040;-82
2023/11/15 11:25:46;;;;;;;2.55;1.65;;;;;;;8.03;100.00;101062.00;4852748;29;20037;-81
2023/11/15 11:28:13;;;;;;;3.72;1.80;;;;;;;8.00;100.00;101067.84;4839356;29;20046;-82
2023/11/15 11:30:40;;;;;;;2.25;1.50;;;;;;;7.99;100.00;101060.88;4872567;29;20029;-80
2023/11/15 11:33:09;;;;;;;4.00;1.38;;;;;;;7.95;100.00;101063.22;4859160;29;20445;-81
2023/11/15 11:35:40;;;;;;;3.47;1.35;;;;;;;7.91;100.00;101062.91;4859590;29;20061;-81
2023/11/15 11:38:10;;;;;;;3.28;1.20;;;;;;;7.94;100.00;101062.44;4856371;29;20045;-80
2023/11/15 11:40:39;;;;;;;3.47;1.27;;;;;;;7.98;100.00;101059.25;4853484;29;20140;-82
2023/11/15 11:43:11;;;;;;;3.33;1.13;;;;;;;8.01;100.00;101061.44;4839005;29;20037;-82
2023/11/15 11:45:37;;;;;;;2.00;1.20;;;;;;;8.08;100.00;101064.75;4858375;29;20061;-82
2023/11/15 11:48:03;;;;;;;4.32;1.20;;;;;;;8.15;100.00;101063.53;4823734;29;20077;-80
2023/11/15 11:50:28;;;;;;;3.05;1.58;;;;;;;8.30;100.00;101068.25;4853589;29;20030;-81
2023/11/15 11:52:58;;;;;;;3.33;1.20;;;;;;;8.43;100.00;101064.47;4853911;29;20072;-82
2023/11/15 11:55:25;;;;;;;4.35;1.23;;;;;;;8.48;100.00;101067.22;4856771;29;20102;-81
2023/11/15 11:57:52;;;;;;;1.10;0.60;;;;;;;8.44;100.00;101064.22;4857486;29;20045;-82
2023/11/15 12:00:19;;;;;;;2.75;0.63;;;;;;;8.43;100.00;101069.81;4855187;29;20033;-82
2023/11/15 12:02:53;;;;;;;1.25;0.40;;;;;;;8.36;100.00;101061.97;4840880;29;20045;-87
2023/11/15 12:05:21;;;;;;;1.75;0.73;;;;;;;8.28;100.00;101069.56;4843578;29;20045;-83
2023/11/15 12:07:48;;;;;;;1.00;0.40;;;;;;;8.22;100.00;101079.38;4859012;29;20483;-87
2023/11/15 12:10:15;;;;;;;1.75;0.50;;;;;;;8.18;100.00;101078.22;4841725;29;20105;-85
2023/11/15 12:12:54;;;;;;;1.10;0.40;;;;;;;8.13;100.00;101070.16;4859438;29;20045;-85
2023/11/15 12:15:22;;;;;;;6.70;0.60;;;;;;;8.08;100.00;101068.22;4858910;29;20042;-84
2023/11/15 12:17:50;;;;;;;2.85;0.68;;;;;;;8.08;100.00;101083.44;4856320;29;20084;-86
2023/11/15 12:20:25;;;;;;;2.95;0.52;;;;;;;8.09;100.00;101082.38;4859862;29;20042;-85
2023/11/15 12:23:12;;;;;;;1.35;0.52;;;;;;;8.08;100.00;101072.75;4869569;29;20120;-85
2023/11/15 12:25:54;;;;;;;2.05;0.35;;;;;;;8.08;100.00;101078.09;4860070;29;20049;-85
2023/11/15 12:28:31;;;;;;;2.35;0.88;;;;;;;8.09;100.00;101087.72;4860642;29;20076;-85
2023/11/15 12:30:58;;;;;;;1.98;0.57;;;;;;;8.09;100.00;101085.84;4874848;29;20036;-85
2023/11/15 12:33:26;;;;;;;1.58;0.70;;;;;;;8.09;100.00;101088.50;4859493;29;20057;-86
2023/11/15 12:35:53;;;;;;;1.40;0.50;;;;;;;8.07;100.00;101090.63;4859594;29;20128;-84
2023/11/15 12:38:19;;;;;;;1.27;0.40;;;;;;;8.09;100.00;101091.19;4872670;29;20044;-84
2023/11/15 12:40:46;;;;;;;2.85;0.45;;;;;;;8.14;100.00;101098.47;4826087;29;20041;-81
2023/11/15 12:43:19;;;;;;;3.10;0.80;;;;;;;8.17;100.00;101087.28;4841896;29;20824;-82
2023/11/15 12:45:46;;;;;;;3.28;0.80;;;;;;;8.18;100.00;101088.91;4856702;29;20037;-78
2023/11/15 12:48:12;;;;;;;1.45;0.63;;;;;;;8.20;100.00;101090.28;4848772;29;20033;-80
2023/11/15 12:50:39;;;;;;;0.88;0.60;;;;;;;8.21;100.00;101077.75;4872609;29;20101;-83
2023/11/15 12:53:15;;;;;;;7.35;0.80;;;;;;;8.21;100.00;101083.09;4851899;29;20512;-84
2023/11/15 12:55:55;;;;;;;1.73;0.60;;;;;;;8.20;100.00;101082.28;4856313;29;20044;-81
2023/11/15 12:58:45;;;;;;;1.85;0.70;;;;;;;8.25;100.00;101089.53;4834807;29;20106;-82
2023/11/15 14:27:54;;;;;;;2.85;2.20;;;;;;;8.16;100.00;101099.00;5899746;23;20023;-82
2023/11/15 14:36:20;;;;;;;2.47;2.10;;;;;;;8.08;100.00;101099.44;5969203;23;20024;31
2023/11/15 15:47:18;;;;;;;2.55;1.50;;;;;;;7.54;100.00;101115.91;5333566;23;20080;-80
2023/11/15 16:19:08;;;;;;;1.90;1.50;;;;;;;7.22;100.00;101126.22;5482823;23;20028;-79
2023/11/15 19:23:45;;;;;;;9.48;5.40;;;;;;;6.93;100.00;101039.41;5125145;23;20129;-82
2023/11/15 19:35:30;;;;;;;8.98;5.28;;;;;;;7.07;100.00;101043.38;5353033;23;20069;-81
2023/11/15 19:37:57;;;;;;;14.43;6.55;;;;;;;7.10;100.00;101040.22;4907556;29;20033;-81
2023/11/15 19:40:26;;;;;;;14.18;5.38;;;;;;;7.09;100.00;101034.09;4899917;29;20542;-80
2023/11/15 19:42:54;;;;;;;14.07;4.78;;;;;;;7.21;100.00;101051.88;4894767;29;20045;-80
2023/11/15 19:45:21;;;;;;;12.98;4.43;;;;;;;7.21;100.00;101042.03;4861686;29;20045;-80
2023/11/15 20:08:08;;;;;;;9.68;3.95;;;;;;;7.61;100.00;101019.78;5700172;23;20831;-80
2023/11/15 20:27:28;;;;;;;10.68;4.03;;;;;;;7.81;100.00;101012.09;5804491;23;20138;-80
2023/11/15 20:29:57;;;;;;;9.98;3.25;;;;;;;7.84;100.00;101029.44;4979745;23;20030;-80
2023/11/15 20:35:22;;;;;;;12.90;3.35;;;;;;;7.88;100.00;101026.06;5265404;23;20057;-79
2023/11/15 20:37:48;;;;;;;11.05;3.17;;;;;;;7.87;100.00;101029.78;4891393;29;20107;-79
2023/11/15 20:40:15;;;;;;;14.13;2.97;;;;;;;7.88;100.00;101009.25;4888089;29;20032;-80
2023/11/15 20:42:45;;;;;;;9.38;3.53;;;;;;;7.92;100.00;101013.88;4869674;29;20039;-79
2023/11/15 20:45:12;;;;;;;19.95;3.90;;;;;;;7.96;100.00;101016.03;4890114;29;20414;-80
2023/11/15 20:47:39;;;;;;;13.45;3.53;;;;;;;7.94;100.00;100990.41;4863254;29;20044;-79
2023/11/15 20:50:07;;;;;;;10.80;4.03;;;;;;;7.96;100.00;100994.69;4887219;29;20048;-79
2023/11/15 20:52:34;;;;;;;14.52;3.80;;;;;;;7.99;100.00;101004.84;4862196;29;20174;-78
2023/11/15 20:55:00;;;;;;;9.13;3.58;;;;;;;7.98;100.00;100993.38;4885057;29;20524;-78
2023/11/15 20:57:25;;;;;;;10.13;3.70;;;;;;;7.99;100.00;100994.19;4887764;29;20036;-78
2023/11/15 20:59:52;;;;;;;10.68;3.40;;;;;;;7.99;100.00;100994.19;4876862;29;20884;-79
2023/11/15 21:02:18;;;;;;;10.85;3.80;;;;;;;8.00;100.00;100990.50;4889697;29;20037;-80
2023/11/15 21:04:44;;;;;;;18.15;3.80;;;;;;;8.02;100.00;100989.19;4905763;29;20037;-78
2023/11/15 21:07:10;;;;;;;9.27;3.90;;;;;;;8.01;100.00;100981.44;4867750;29;20037;-79
2023/11/15 21:09:38;;;;;;;14.10;3.97;;;;;;;8.01;100.00;100973.44;4872616;29;20072;-79
2023/11/15 21:12:04;;;;;;;13.23;4.68;;;;;;;8.06;100.00;100985.00;4857097;29;20032;-79
2023/11/15 21:14:30;;;;;;;11.82;3.95;;;;;;;8.08;100.00;100977.53;4870612;29;20097;-79
2023/11/15 21:16:56;;;;;;;9.98;3.67;;;;;;;8.05;100.00;100974.53;4862381;29;20040;-78
2023/11/15 21:19:21;;;;;;;12.95;3.70;;;;;;;8.05;100.00;100966.53;4868335;29;20041;-78
2023/11/15 21:21:47;;;;;;;14.38;3.83;;;;;;;8.06;100.00;100973.47;4874339;29;20032;-78
2023/11/15 21:24:13;;;;;;;12.93;3.58;;;;;;;8.04;100.00;100964.94;4859135;29;20032;-77
2023/11/15 21:26:40;;;;;;;7.60;3.47;;;;;;;8.06;100.00;100968.97;4887730;29;20135;-79
2023/11/15 21:29:10;;;;;;;13.57;4.65;;;;;;;8.10;100.00;100970.09;4864871;29;20037;-79
2023/11/15 21:31:39;;;;;;;8.32;3.47;;;;;;;8.11;100.00;100970.88;4878644;29;20045;-78
2023/11/15 21:34:07;;;;;;;12.80;3.47;;;;;;;8.09;100.00;100955.13;4873360;29;20037;-81
2023/11/15 21:36:59;;;;;;;8.93;3.15;;;;;;;8.13;100.00;100963.47;4881123;29;20073;-81
2023/11/15 21:39:43;;;;;;;13.75;3.20;;;;;;;8.12;100.00;100959.16;4909299;29;20028;-81
2023/11/15 21:42:12;;;;;;;10.32;3.35;;;;;;;8.11;100.00;100954.88;4887224;29;20399;-80
2023/11/15 21:44:41;;;;;;;11.75;3.58;;;;;;;8.16;100.00;100952.28;4871214;29;20523;-80
2023/11/15 21:48:00;;;;;;;15.45;3.75;;;;;;;8.16;100.00;100952.28;4871580;29;20048;-81
2023/11/15 21:51:27;;;;;;;10.35;2.85;;;;;;;8.15;100.00;100948.81;5172558;23;20131;-82
2023/11/15 21:54:17;;;;;;;10.40;3.33;;;;;;;8.14;100.00;100941.88;4882981;29;20382;-82
2023/11/15 21:57:09;;;;;;;9.32;2.92;;;;;;;8.14;100.00;100927.72;4898367;29;20489;-79
2023/11/15 21:59:36;;;;;;;7.85;2.80;;;;;;;8.16;100.00;100926.41;4877078;29;20044;-81
2023/11/15 23:23:26;;;;;;;9.00;4.43;;;;;;;8.17;100.00;100893.34;5248738;23;20062;31
